sensor_id;sensor_type;location;lat;lon;timestamp;temperature;humidity
28484;DHT22;15704;48.834;8.736;2024-03-07T00:00:43;11.70;97.80
28484;DHT22;15704;48.834;8.736;2024-03-07T00:03:16;11.70;97.50
28484;DHT22;15704;48.834;8.736;2024-03-07T00:05:44;11.70;97.50
28484;DHT22;15704;48.834;8.736;2024-03-07T00:08:12;11.70;97.50
28484;DHT22;15704;48.834;8.736;2024-03-07T00:10:40;11.70;97.50
28484;DHT22;15704;48.834;8.736;2024-03-07T00:13:06;11.70;97.50
28484;DHT22;15704;48.834;8.736;2024-03-07T00:15:34;11.70;97.50
28484;DHT22;15704;48.834;8.736;2024-03-07T00:18:01;11.70;97.50
28484;DHT22;15704;48.834;8.736;2024-03-07T00:20:28;11.70;97.50
28484;DHT22;15704;48.834;8.736;2024-03-07T00:22:55;11.70;97.50
28484;DHT22;15704;48.834;8.736;2024-03-07T00:25:21;11.70;97.40
28484;DHT22;15704;48.834;8.736;2024-03-07T00:27:49;11.70;97.50
28484;DHT22;15704;48.834;8.736;2024-03-07T00:30:18;11.70;97.50
28484;DHT22;15704;48.834;8.736;2024-03-07T00:32:47;11.70;97.50
28484;DHT22;15704;48.834;8.736;2024-03-07T00:35:15;11.70;97.50
28484;DHT22;15704;48.834;8.736;2024-03-07T00:37:42;11.70;97.50
28484;DHT22;15704;48.834;8.736;2024-03-07T00:40:10;11.70;97.50
28484;DHT22;15704;48.834;8.736;2024-03-07T00:42:37;11.70;97.50
28484;DHT22;15704;48.834;8.736;2024-03-07T00:45:05;11.70;97.50
28484;DHT22;15704;48.834;8.736;2024-03-07T00:47:32;11.70;97.40
28484;DHT22;15704;48.834;8.736;2024-03-07T00:50:01;11.70;97.40
28484;DHT22;15704;48.834;8.736;2024-03-07T00:52:28;11.70;97.40
28484;DHT22;15704;48.834;8.736;2024-03-07T00:54:55;11.70;97.50
28484;DHT22;15704;48.834;8.736;2024-03-07T00:57:22;11.70;97.50
28484;DHT22;15704;48.834;8.736;2024-03-07T00:59:48;11.70;97.50
28484;DHT22;15704;48.834;8.736;2024-03-07T01:02:16;11.70;97.50
28484;DHT22;15704;48.834;8.736;2024-03-07T01:04:44;11.70;97.40
28484;DHT22;15704;48.834;8.736;2024-03-07T01:07:11;11.70;97.50
28484;DHT22;15704;48.834;8.736;2024-03-07T01:09:37;11.70;97.50
28484;DHT22;15704;48.834;8.736;2024-03-07T01:12:04;11.70;97.50
28484;DHT22;15704;48.834;8.736;2024-03-07T01:14:32;11.70;97.50
28484;DHT22;15704;48.834;8.736;2024-03-07T01:16:59;11.70;97.50
28484;DHT22;15704;48.834;8.736;2024-03-07T01:19:26;11.70;97.40
28484;DHT22;15704;48.834;8.736;2024-03-07T01:21:53;11.70;97.40
28484;DHT22;15704;48.834;8.736;2024-03-07T01:24:19;11.70;97.40
28484;DHT22;15704;48.834;8.736;2024-03-07T01:26:47;11.70;97.40
28484;DHT22;15704;48.834;8.736;2024-03-07T01:29:14;11.70;97.50
28484;DHT22;15704;48.834;8.736;2024-03-07T01:31:42;11.70;97.50
28484;DHT22;15704;48.834;8.736;2024-03-07T01:34:09;11.70;97.40
28484;DHT22;15704;48.834;8.736;2024-03-07T01:36:36;11.70;97.40
28484;DHT22;15704;48.834;8.736;2024-03-07T01:39:03;11.70;97.40
28484;DHT22;15704;48.834;8.736;2024-03-07T01:41:30;11.70;97.50
28484;DHT22;15704;48.834;8.736;2024-03-07T01:43:57;11.70;97.40
28484;DHT22;15704;48.834;8.736;2024-03-07T01:46:24;11.70;97.40
28484;DHT22;15704;48.834;8.736;2024-03-07T01:48:51;11.70;97.40
28484;DHT22;15704;48.834;8.736;2024-03-07T01:51:18;11.70;97.40
28484;DHT22;15704;48.834;8.736;2024-03-07T01:53:45;11.70;97.40
28484;DHT22;15704;48.834;8.736;2024-03-07T01:56:12;11.70;97.40
28484;DHT22;15704;48.834;8.736;2024-03-07T01:58:41;11.70;97.40
28484;DHT22;15704;48.834;8.736;2024-03-07T02:01:09;11.70;97.40
28484;DHT22;15704;48.834;8.736;2024-03-07T02:03:36;11.70;97.40
28484;DHT22;15704;48.834;8.736;2024-03-07T02:06:03;11.70;97.40
28484;DHT22;15704;48.834;8.736;2024-03-07T02:08:30;11.70;97.40
28484;DHT22;15704;48.834;8.736;2024-03-07T02:10:58;11.70;97.40
28484;DHT22;15704;48.834;8.736;2024-03-07T02:13:25;11.70;97.40
28484;DHT22;15704;48.834;8.736;2024-03-07T02:15:53;11.70;97.40
28484;DHT22;15704;48.834;8.736;2024-03-07T02:18:20;11.70;97.40
28484;DHT22;15704;48.834;8.736;2024-03-07T02:20:47;11.70;97.40
28484;DHT22;15704;48.834;8.736;2024-03-07T02:23:15;11.70;97.40
28484;DHT22;15704;48.834;8.736;2024-03-07T02:25:42;11.70;97.30
28484;DHT22;15704;48.834;8.736;2024-03-07T02:28:09;11.70;97.30
28484;DHT22;15704;48.834;8.736;2024-03-07T02:30:35;11.70;97.30
28484;DHT22;15704;48.834;8.736;2024-03-07T02:33:03;11.70;97.40
28484;DHT22;15704;48.834;8.736;2024-03-07T02:35:34;11.70;97.30
28484;DHT22;15704;48.834;8.736;2024-03-07T02:38:04;11.70;97.30
28484;DHT22;15704;48.834;8.736;2024-03-07T02:40:32;11.70;97.40
28484;DHT22;15704;48.834;8.736;2024-03-07T02:42:59;11.70;97.30
28484;DHT22;15704;48.834;8.736;2024-03-07T02:45:25;11.70;97.30
28484;DHT22;15704;48.834;8.736;2024-03-07T02:47:53;11.70;97.30
28484;DHT22;15704;48.834;8.736;2024-03-07T02:50:21;11.70;97.30
28484;DHT22;15704;48.834;8.736;2024-03-07T02:52:49;11.70;97.30
28484;DHT22;15704;48.834;8.736;2024-03-07T02:55:16;11.70;97.30
28484;DHT22;15704;48.834;8.736;2024-03-07T02:57:45;11.70;97.30
28484;DHT22;15704;48.834;8.736;2024-03-07T03:00:12;11.70;97.30
28484;DHT22;15704;48.834;8.736;2024-03-07T03:02:47;11.70;97.30
28484;DHT22;15704;48.834;8.736;2024-03-07T03:05:15;11.70;97.30
28484;DHT22;15704;48.834;8.736;2024-03-07T03:07:42;11.70;97.30
28484;DHT22;15704;48.834;8.736;2024-03-07T03:10:09;11.70;97.30
28484;DHT22;15704;48.834;8.736;2024-03-07T03:12:37;11.70;97.30
28484;DHT22;15704;48.834;8.736;2024-03-07T03:15:07;11.70;97.30
28484;DHT22;15704;48.834;8.736;2024-03-07T03:17:36;11.70;97.30
28484;DHT22;15704;48.834;8.736;2024-03-07T03:20:03;11.70;97.30
28484;DHT22;15704;48.834;8.736;2024-03-07T03:22:41;11.70;97.30
28484;DHT22;15704;48.834;8.736;2024-03-07T03:25:10;11.70;97.30
28484;DHT22;15704;48.834;8.736;2024-03-07T03:27:37;11.70;97.20
28484;DHT22;15704;48.834;8.736;2024-03-07T03:30:06;11.70;97.20
28484;DHT22;15704;48.834;8.736;2024-03-07T03:32:33;11.70;97.20
28484;DHT22;15704;48.834;8.736;2024-03-07T03:35:00;11.70;97.20
28484;DHT22;15704;48.834;8.736;2024-03-07T03:37:27;11.70;97.20
28484;DHT22;15704;48.834;8.736;2024-03-07T03:39:54;11.70;97.20
28484;DHT22;15704;48.834;8.736;2024-03-07T03:42:21;11.70;97.20
28484;DHT22;15704;48.834;8.736;2024-03-07T03:44:48;11.70;97.20
28484;DHT22;15704;48.834;8.736;2024-03-07T03:47:15;11.60;97.50
28484;DHT22;15704;48.834;8.736;2024-03-07T03:49:41;11.70;97.20
28484;DHT22;15704;48.834;8.736;2024-03-07T03:52:08;11.60;97.20
28484;DHT22;15704;48.834;8.736;2024-03-07T03:54:35;11.70;97.20
28484;DHT22;15704;48.834;8.736;2024-03-07T03:57:01;11.60;97.20
28484;DHT22;15704;48.834;8.736;2024-03-07T03:59:29;11.70;97.20
28484;DHT22;15704;48.834;8.736;2024-03-07T04:01:57;11.70;97.20
28484;DHT22;15704;48.834;8.736;2024-03-07T04:04:24;11.70;97.20
28484;DHT22;15704;48.834;8.736;2024-03-07T04:06:52;11.70;97.20
28484;DHT22;15704;48.834;8.736;2024-03-07T04:09:19;11.70;97.50
28484;DHT22;15704;48.834;8.736;2024-03-07T04:11:46;11.60;97.10
28484;DHT22;15704;48.834;8.736;2024-03-07T04:14:13;11.70;97.20
28484;DHT22;15704;48.834;8.736;2024-03-07T04:16:40;11.60;97.10
28484;DHT22;15704;48.834;8.736;2024-03-07T04:19:07;11.60;97.10
28484;DHT22;15704;48.834;8.736;2024-03-07T04:21:36;11.60;97.20
28484;DHT22;15704;48.834;8.736;2024-03-07T04:24:04;11.60;97.20
28484;DHT22;15704;48.834;8.736;2024-03-07T04:26:31;11.60;97.10
28484;DHT22;15704;48.834;8.736;2024-03-07T04:28:58;11.60;97.20
28484;DHT22;15704;48.834;8.736;2024-03-07T04:31:25;11.60;97.10
28484;DHT22;15704;48.834;8.736;2024-03-07T04:33:51;11.60;97.10
28484;DHT22;15704;48.834;8.736;2024-03-07T04:36:18;11.60;97.10
28484;DHT22;15704;48.834;8.736;2024-03-07T04:38:45;11.60;97.10
28484;DHT22;15704;48.834;8.736;2024-03-07T04:41:12;11.60;97.10
28484;DHT22;15704;48.834;8.736;2024-03-07T04:43:41;11.60;97.10
28484;DHT22;15704;48.834;8.736;2024-03-07T04:46:09;11.60;97.10
28484;DHT22;15704;48.834;8.736;2024-03-07T04:48:36;11.60;97.10
28484;DHT22;15704;48.834;8.736;2024-03-07T04:51:03;11.60;97.10
28484;DHT22;15704;48.834;8.736;2024-03-07T04:53:30;11.60;97.10
28484;DHT22;15704;48.834;8.736;2024-03-07T04:55:57;11.60;97.10
28484;DHT22;15704;48.834;8.736;2024-03-07T04:58:23;11.60;97.10
28484;DHT22;15704;48.834;8.736;2024-03-07T05:00:50;11.60;97.10
28484;DHT22;15704;48.834;8.736;2024-03-07T05:03:17;11.60;97.00
28484;DHT22;15704;48.834;8.736;2024-03-07T05:05:44;11.60;97.00
28484;DHT22;15704;48.834;8.736;2024-03-07T05:08:11;11.60;97.00
28484;DHT22;15704;48.834;8.736;2024-03-07T05:10:38;11.60;97.00
28484;DHT22;15704;48.834;8.736;2024-03-07T05:13:06;11.60;97.00
28484;DHT22;15704;48.834;8.736;2024-03-07T05:15:33;11.60;97.30
28484;DHT22;15704;48.834;8.736;2024-03-07T05:18:02;11.60;97.00
28484;DHT22;15704;48.834;8.736;2024-03-07T05:20:29;11.60;97.00
28484;DHT22;15704;48.834;8.736;2024-03-07T05:22:57;11.60;97.00
28484;DHT22;15704;48.834;8.736;2024-03-07T05:25:25;11.60;97.00
28484;DHT22;15704;48.834;8.736;2024-03-07T05:27:52;11.60;97.00
28484;DHT22;15704;48.834;8.736;2024-03-07T05:30:19;11.60;97.00
28484;DHT22;15704;48.834;8.736;2024-03-07T05:32:51;11.60;97.00
28484;DHT22;15704;48.834;8.736;2024-03-07T05:35:18;11.60;97.00
28484;DHT22;15704;48.834;8.736;2024-03-07T05:37:48;11.60;97.00
28484;DHT22;15704;48.834;8.736;2024-03-07T05:40:17;11.60;97.00
28484;DHT22;15704;48.834;8.736;2024-03-07T05:42:44;11.60;96.90
28484;DHT22;15704;48.834;8.736;2024-03-07T05:45:11;11.60;96.90
28484;DHT22;15704;48.834;8.736;2024-03-07T05:47:40;11.60;96.90
28484;DHT22;15704;48.834;8.736;2024-03-07T05:50:07;11.60;96.90
28484;DHT22;15704;48.834;8.736;2024-03-07T05:52:34;11.60;96.90
28484;DHT22;15704;48.834;8.736;2024-03-07T05:55:02;11.60;96.80
28484;DHT22;15704;48.834;8.736;2024-03-07T05:57:29;11.60;96.80
28484;DHT22;15704;48.834;8.736;2024-03-07T05:59:56;11.60;96.90
28484;DHT22;15704;48.834;8.736;2024-03-07T06:02:23;11.50;96.80
28484;DHT22;15704;48.834;8.736;2024-03-07T06:04:50;11.50;96.80
28484;DHT22;15704;48.834;8.736;2024-03-07T06:07:17;11.50;96.90
28484;DHT22;15704;48.834;8.736;2024-03-07T06:09:43;11.50;96.80
28484;DHT22;15704;48.834;8.736;2024-03-07T06:12:10;11.60;96.80
28484;DHT22;15704;48.834;8.736;2024-03-07T06:14:49;11.50;96.80
28484;DHT22;15704;48.834;8.736;2024-03-07T06:17:16;11.60;96.80
28484;DHT22;15704;48.834;8.736;2024-03-07T06:19:46;11.50;96.70
28484;DHT22;15704;48.834;8.736;2024-03-07T06:22:14;11.60;96.80
28484;DHT22;15704;48.834;8.736;2024-03-07T06:24:41;11.60;96.80
28484;DHT22;15704;48.834;8.736;2024-03-07T06:27:09;11.50;96.70
28484;DHT22;15704;48.834;8.736;2024-03-07T06:29:43;11.50;96.70
28484;DHT22;15704;48.834;8.736;2024-03-07T06:32:10;11.50;96.70
28484;DHT22;15704;48.834;8.736;2024-03-07T06:34:37;11.50;96.70
28484;DHT22;15704;48.834;8.736;2024-03-07T06:37:05;11.50;96.80
28484;DHT22;15704;48.834;8.736;2024-03-07T06:39:32;11.50;96.70
28484;DHT22;15704;48.834;8.736;2024-03-07T06:41:59;11.50;97.00
28484;DHT22;15704;48.834;8.736;2024-03-07T06:44:27;11.50;96.70
28484;DHT22;15704;48.834;8.736;2024-03-07T06:46:54;11.50;96.70
28484;DHT22;15704;48.834;8.736;2024-03-07T06:49:21;11.50;96.60
28484;DHT22;15704;48.834;8.736;2024-03-07T06:51:48;11.50;97.00
28484;DHT22;15704;48.834;8.736;2024-03-07T06:54:14;11.50;96.60
28484;DHT22;15704;48.834;8.736;2024-03-07T06:56:41;11.50;96.60
28484;DHT22;15704;48.834;8.736;2024-03-07T06:59:10;11.50;96.60
28484;DHT22;15704;48.834;8.736;2024-03-07T07:01:37;11.50;96.70
28484;DHT22;15704;48.834;8.736;2024-03-07T07:04:04;11.50;96.70
28484;DHT22;15704;48.834;8.736;2024-03-07T07:06:31;11.50;96.60
28484;DHT22;15704;48.834;8.736;2024-03-07T07:08:58;11.50;96.60
28484;DHT22;15704;48.834;8.736;2024-03-07T07:11:26;11.50;96.60
28484;DHT22;15704;48.834;8.736;2024-03-07T07:13:59;11.50;96.60
28484;DHT22;15704;48.834;8.736;2024-03-07T07:16:26;11.50;96.60
28484;DHT22;15704;48.834;8.736;2024-03-07T07:18:53;11.50;96.60
28484;DHT22;15704;48.834;8.736;2024-03-07T07:21:22;11.50;96.60
28484;DHT22;15704;48.834;8.736;2024-03-07T07:23:48;11.50;96.50
28484;DHT22;15704;48.834;8.736;2024-03-07T07:26:15;11.50;96.50
28484;DHT22;15704;48.834;8.736;2024-03-07T07:28:42;11.60;96.50
28484;DHT22;15704;48.834;8.736;2024-03-07T07:31:09;11.50;96.50
28484;DHT22;15704;48.834;8.736;2024-03-07T07:33:36;11.50;96.50
28484;DHT22;15704;48.834;8.736;2024-03-07T07:36:03;11.50;96.60
28484;DHT22;15704;48.834;8.736;2024-03-07T07:38:30;11.50;96.50
28484;DHT22;15704;48.834;8.736;2024-03-07T07:40:58;11.50;96.50
28484;DHT22;15704;48.834;8.736;2024-03-07T07:43:25;11.50;96.60
28484;DHT22;15704;48.834;8.736;2024-03-07T07:46:07;11.50;96.50
28484;DHT22;15704;48.834;8.736;2024-03-07T07:48:34;11.50;96.50
28484;DHT22;15704;48.834;8.736;2024-03-07T07:51:01;11.50;96.50
28484;DHT22;15704;48.834;8.736;2024-03-07T07:53:28;11.60;96.50
28484;DHT22;15704;48.834;8.736;2024-03-07T07:55:56;11.60;96.50
28484;DHT22;15704;48.834;8.736;2024-03-07T07:58:23;11.60;96.50
28484;DHT22;15704;48.834;8.736;2024-03-07T08:00:50;11.60;96.40
28484;DHT22;15704;48.834;8.736;2024-03-07T08:03:17;11.60;96.40
28484;DHT22;15704;48.834;8.736;2024-03-07T08:05:44;11.50;96.40
28484;DHT22;15704;48.834;8.736;2024-03-07T08:08:14;11.50;96.40
28484;DHT22;15704;48.834;8.736;2024-03-07T08:10:43;11.60;96.50
28484;DHT22;15704;48.834;8.736;2024-03-07T08:13:13;11.50;96.40
28484;DHT22;15704;48.834;8.736;2024-03-07T08:15:40;11.50;96.40
28484;DHT22;15704;48.834;8.736;2024-03-07T08:18:07;11.50;96.40
28484;DHT22;15704;48.834;8.736;2024-03-07T08:20:37;11.60;96.40
28484;DHT22;15704;48.834;8.736;2024-03-07T08:23:04;11.60;96.40
28484;DHT22;15704;48.834;8.736;2024-03-07T08:25:31;11.60;96.40
28484;DHT22;15704;48.834;8.736;2024-03-07T08:27:58;11.60;96.40
28484;DHT22;15704;48.834;8.736;2024-03-07T08:30:25;11.50;96.30
28484;DHT22;15704;48.834;8.736;2024-03-07T08:32:55;11.50;96.40
28484;DHT22;15704;48.834;8.736;2024-03-07T08:35:23;11.50;96.40
28484;DHT22;15704;48.834;8.736;2024-03-07T08:37:53;11.50;96.40
28484;DHT22;15704;48.834;8.736;2024-03-07T08:40:25;11.60;96.40
28484;DHT22;15704;48.834;8.736;2024-03-07T08:42:55;11.50;96.40
28484;DHT22;15704;48.834;8.736;2024-03-07T08:45:27;11.50;96.40
28484;DHT22;15704;48.834;8.736;2024-03-07T08:47:55;11.60;96.40
28484;DHT22;15704;48.834;8.736;2024-03-07T08:50:25;11.50;96.40
28484;DHT22;15704;48.834;8.736;2024-03-07T08:52:53;11.50;96.40
28484;DHT22;15704;48.834;8.736;2024-03-07T08:55:23;11.50;96.40
28484;DHT22;15704;48.834;8.736;2024-03-07T08:57:51;11.60;96.40
28484;DHT22;15704;48.834;8.736;2024-03-07T09:00:19;11.60;96.40
28484;DHT22;15704;48.834;8.736;2024-03-07T09:02:55;11.50;96.30
28484;DHT22;15704;48.834;8.736;2024-03-07T09:05:29;11.60;96.30
28484;DHT22;15704;48.834;8.736;2024-03-07T09:07:58;11.60;96.30
28484;DHT22;15704;48.834;8.736;2024-03-07T09:10:25;11.60;96.30
28484;DHT22;15704;48.834;8.736;2024-03-07T09:12:53;11.60;96.30
28484;DHT22;15704;48.834;8.736;2024-03-07T09:15:21;11.60;96.30
28484;DHT22;15704;48.834;8.736;2024-03-07T09:17:50;11.60;96.30
28484;DHT22;15704;48.834;8.736;2024-03-07T09:20:18;11.60;96.30
28484;DHT22;15704;48.834;8.736;2024-03-07T09:22:47;11.60;96.20
28484;DHT22;15704;48.834;8.736;2024-03-07T09:25:15;11.70;96.20
28484;DHT22;15704;48.834;8.736;2024-03-07T09:27:44;11.70;96.20
28484;DHT22;15704;48.834;8.736;2024-03-07T09:30:11;11.60;96.20
28484;DHT22;15704;48.834;8.736;2024-03-07T09:32:45;11.70;96.20
28484;DHT22;15704;48.834;8.736;2024-03-07T09:35:12;11.60;96.20
28484;DHT22;15704;48.834;8.736;2024-03-07T09:37:41;11.70;96.20
28484;DHT22;15704;48.834;8.736;2024-03-07T09:40:08;11.70;96.20
28484;DHT22;15704;48.834;8.736;2024-03-07T09:42:45;11.70;96.20
28484;DHT22;15704;48.834;8.736;2024-03-07T09:45:16;11.70;96.10
28484;DHT22;15704;48.834;8.736;2024-03-07T09:47:46;11.70;96.10
28484;DHT22;15704;48.834;8.736;2024-03-07T09:50:19;11.70;96.10
28484;DHT22;15704;48.834;8.736;2024-03-07T09:52:49;11.70;96.10
28484;DHT22;15704;48.834;8.736;2024-03-07T09:55:17;11.70;96.10
28484;DHT22;15704;48.834;8.736;2024-03-07T09:57:46;11.70;96.10
28484;DHT22;15704;48.834;8.736;2024-03-07T10:00:16;11.70;96.10
28484;DHT22;15704;48.834;8.736;2024-03-07T10:05:22;11.70;96.10
28484;DHT22;15704;48.834;8.736;2024-03-07T10:07:50;11.70;96.00
28484;DHT22;15704;48.834;8.736;2024-03-07T10:10:20;11.70;96.10
28484;DHT22;15704;48.834;8.736;2024-03-07T10:12:49;11.70;96.10
28484;DHT22;15704;48.834;8.736;2024-03-07T10:15:16;11.70;96.10
28484;DHT22;15704;48.834;8.736;2024-03-07T10:17:45;11.70;96.00
28484;DHT22;15704;48.834;8.736;2024-03-07T10:20:18;11.70;96.10
28484;DHT22;15704;48.834;8.736;2024-03-07T10:22:48;11.70;96.10
28484;DHT22;15704;48.834;8.736;2024-03-07T10:25:21;11.70;96.20
28484;DHT22;15704;48.834;8.736;2024-03-07T10:27:51;11.70;96.20
28484;DHT22;15704;48.834;8.736;2024-03-07T10:30:19;11.70;96.20
28484;DHT22;15704;48.834;8.736;2024-03-07T10:32:57;11.70;96.20
28484;DHT22;15704;48.834;8.736;2024-03-07T10:35:28;11.70;96.20
28484;DHT22;15704;48.834;8.736;2024-03-07T10:37:56;11.70;96.20
28484;DHT22;15704;48.834;8.736;2024-03-07T10:40:28;11.70;96.20
28484;DHT22;15704;48.834;8.736;2024-03-07T10:42:57;11.70;96.20
28484;DHT22;15704;48.834;8.736;2024-03-07T10:45:28;11.70;96.10
28484;DHT22;15704;48.834;8.736;2024-03-07T10:47:56;11.70;96.20
28484;DHT22;15704;48.834;8.736;2024-03-07T10:53:23;11.70;96.10
28484;DHT22;15704;48.834;8.736;2024-03-07T11:01:23;11.70;96.10
28484;DHT22;15704;48.834;8.736;2024-03-07T11:03:52;11.80;96.10
28484;DHT22;15704;48.834;8.736;2024-03-07T11:06:20;11.80;96.10
28484;DHT22;15704;48.834;8.736;2024-03-07T11:08:47;11.70;96.00
28484;DHT22;15704;48.834;8.736;2024-03-07T11:11:15;11.80;96.10
28484;DHT22;15704;48.834;8.736;2024-03-07T11:13:44;11.80;96.10
28484;DHT22;15704;48.834;8.736;2024-03-07T11:16:12;11.80;96.00
28484;DHT22;15704;48.834;8.736;2024-03-07T11:18:40;11.80;96.00
28484;DHT22;15704;48.834;8.736;2024-03-07T11:21:06;11.80;96.00
28484;DHT22;15704;48.834;8.736;2024-03-07T11:23:35;11.80;96.00
28484;DHT22;15704;48.834;8.736;2024-03-07T11:26:09;11.80;96.00
28484;DHT22;15704;48.834;8.736;2024-03-07T11:28:38;11.80;96.00
28484;DHT22;15704;48.834;8.736;2024-03-07T11:31:09;11.80;96.00
28484;DHT22;15704;48.834;8.736;2024-03-07T11:33:39;11.80;96.00
28484;DHT22;15704;48.834;8.736;2024-03-07T11:36:11;11.80;96.00
28484;DHT22;15704;48.834;8.736;2024-03-07T11:38:45;11.80;96.00
28484;DHT22;15704;48.834;8.736;2024-03-07T11:41:12;11.70;96.00
28484;DHT22;15704;48.834;8.736;2024-03-07T11:43:41;11.70;96.00
28484;DHT22;15704;48.834;8.736;2024-03-07T11:46:10;11.80;96.10
28484;DHT22;15704;48.834;8.736;2024-03-07T11:48:44;11.70;96.00
28484;DHT22;15704;48.834;8.736;2024-03-07T11:51:17;11.80;96.00
28484;DHT22;15704;48.834;8.736;2024-03-07T11:53:44;11.70;96.00
28484;DHT22;15704;48.834;8.736;2024-03-07T11:56:15;11.70;96.00
28484;DHT22;15704;48.834;8.736;2024-03-07T11:58:44;11.70;96.00
28484;DHT22;15704;48.834;8.736;2024-03-07T12:01:11;11.70;96.10
28484;DHT22;15704;48.834;8.736;2024-03-07T12:03:40;11.70;96.20
28484;DHT22;15704;48.834;8.736;2024-03-07T12:06:08;11.80;96.50
28484;DHT22;15704;48.834;8.736;2024-03-07T12:08:39;11.70;96.90
28484;DHT22;15704;48.834;8.736;2024-03-07T12:11:09;11.70;96.90
28484;DHT22;15704;48.834;8.736;2024-03-07T12:13:39;11.70;97.00
28484;DHT22;15704;48.834;8.736;2024-03-07T12:16:07;11.70;96.90
28484;DHT22;15704;48.834;8.736;2024-03-07T12:18:35;11.70;96.90
28484;DHT22;15704;48.834;8.736;2024-03-07T12:21:04;11.70;96.80
28484;DHT22;15704;48.834;8.736;2024-03-07T12:23:33;11.70;96.70
28484;DHT22;15704;48.834;8.736;2024-03-07T12:26:03;11.70;96.60
28484;DHT22;15704;48.834;8.736;2024-03-07T12:28:31;11.80;96.60
28484;DHT22;15704;48.834;8.736;2024-03-07T12:31:01;11.80;96.60
28484;DHT22;15704;48.834;8.736;2024-03-07T12:33:30;11.70;96.50
28484;DHT22;15704;48.834;8.736;2024-03-07T12:36:02;11.80;96.50
28484;DHT22;15704;48.834;8.736;2024-03-07T12:38:37;11.80;96.50
28484;DHT22;15704;48.834;8.736;2024-03-07T12:41:07;11.80;96.50
28484;DHT22;15704;48.834;8.736;2024-03-07T12:43:35;11.80;96.50
28484;DHT22;15704;48.834;8.736;2024-03-07T12:46:05;11.80;96.50
28484;DHT22;15704;48.834;8.736;2024-03-07T12:48:32;11.80;96.50
28484;DHT22;15704;48.834;8.736;2024-03-07T12:50:59;11.80;96.50
28484;DHT22;15704;48.834;8.736;2024-03-07T12:53:27;11.80;96.50
28484;DHT22;15704;48.834;8.736;2024-03-07T12:55:55;11.80;96.50
28484;DHT22;15704;48.834;8.736;2024-03-07T12:58:23;11.80;96.50
28484;DHT22;15704;48.834;8.736;2024-03-07T13:00:53;11.80;96.60
28484;DHT22;15704;48.834;8.736;2024-03-07T13:03:23;11.80;96.50
28484;DHT22;15704;48.834;8.736;2024-03-07T13:05:57;11.80;96.50
28484;DHT22;15704;48.834;8.736;2024-03-07T13:08:28;11.80;96.50
28484;DHT22;15704;48.834;8.736;2024-03-07T13:10:58;11.80;96.50
28484;DHT22;15704;48.834;8.736;2024-03-07T13:13:27;11.80;96.50
28484;DHT22;15704;48.834;8.736;2024-03-07T13:15:54;11.70;96.50
28484;DHT22;15704;48.834;8.736;2024-03-07T13:18:22;11.70;96.50
28484;DHT22;15704;48.834;8.736;2024-03-07T13:20:49;11.70;96.50
28484;DHT22;15704;48.834;8.736;2024-03-07T13:23:16;11.70;96.50
28484;DHT22;15704;48.834;8.736;2024-03-07T13:25:44;11.70;96.50
28484;DHT22;15704;48.834;8.736;2024-03-07T13:28:15;11.70;96.50
28484;DHT22;15704;48.834;8.736;2024-03-07T13:30:51;11.80;96.60
28484;DHT22;15704;48.834;8.736;2024-03-07T13:33:22;11.80;96.70
28484;DHT22;15704;48.834;8.736;2024-03-07T13:35:51;11.80;97.00
28484;DHT22;15704;48.834;8.736;2024-03-07T13:38:19;11.80;97.00
28484;DHT22;15704;48.834;8.736;2024-03-07T13:40:46;11.80;97.00
28484;DHT22;15704;48.834;8.736;2024-03-07T13:43:12;11.80;96.90
28484;DHT22;15704;48.834;8.736;2024-03-07T13:45:39;11.80;96.80
28484;DHT22;15704;48.834;8.736;2024-03-07T13:48:09;11.80;96.90
28484;DHT22;15704;48.834;8.736;2024-03-07T13:50:38;11.80;97.00
28484;DHT22;15704;48.834;8.736;2024-03-07T13:53:23;11.80;96.90
28484;DHT22;15704;48.834;8.736;2024-03-07T14:13:18;11.70;96.70
28484;DHT22;15704;48.834;8.736;2024-03-07T14:27:35;11.70;96.60
28484;DHT22;15704;48.834;8.736;2024-03-07T14:32:32;11.70;96.70
28484;DHT22;15704;48.834;8.736;2024-03-07T14:35:07;11.80;96.60
28484;DHT22;15704;48.834;8.736;2024-03-07T14:38:05;11.80;96.70
28484;DHT22;15704;48.834;8.736;2024-03-07T14:40:32;11.80;96.70
28484;DHT22;15704;48.834;8.736;2024-03-07T14:43:03;11.80;97.00
28484;DHT22;15704;48.834;8.736;2024-03-07T14:45:38;11.80;97.10
28484;DHT22;15704;48.834;8.736;2024-03-07T14:48:06;11.80;97.10
28484;DHT22;15704;48.834;8.736;2024-03-07T14:50:39;11.80;97.10
28484;DHT22;15704;48.834;8.736;2024-03-07T14:53:07;11.80;97.10
28484;DHT22;15704;48.834;8.736;2024-03-07T14:55:35;11.80;97.10
28484;DHT22;15704;48.834;8.736;2024-03-07T14:58:02;11.80;97.00
28484;DHT22;15704;48.834;8.736;2024-03-07T15:00:29;11.80;97.00
28484;DHT22;15704;48.834;8.736;2024-03-07T15:03:10;11.80;97.00
28484;DHT22;15704;48.834;8.736;2024-03-07T15:05:37;11.80;97.00
28484;DHT22;15704;48.834;8.736;2024-03-07T15:08:05;11.80;96.90
28484;DHT22;15704;48.834;8.736;2024-03-07T15:10:35;11.80;96.90
28484;DHT22;15704;48.834;8.736;2024-03-07T15:13:01;11.70;96.80
28484;DHT22;15704;48.834;8.736;2024-03-07T15:15:30;11.80;96.80
28484;DHT22;15704;48.834;8.736;2024-03-07T15:17:59;11.70;96.80
28484;DHT22;15704;48.834;8.736;2024-03-07T15:20:27;11.70;96.70
28484;DHT22;15704;48.834;8.736;2024-03-07T15:23:00;11.70;97.10
28484;DHT22;15704;48.834;8.736;2024-03-07T15:25:27;11.70;96.70
28484;DHT22;15704;48.834;8.736;2024-03-07T15:27:56;11.70;96.70
28484;DHT22;15704;48.834;8.736;2024-03-07T15:30:24;11.70;96.70
28484;DHT22;15704;48.834;8.736;2024-03-07T15:32:52;11.70;96.70
28484;DHT22;15704;48.834;8.736;2024-03-07T15:35:20;11.70;96.70
28484;DHT22;15704;48.834;8.736;2024-03-07T15:37:48;11.70;96.70
28484;DHT22;15704;48.834;8.736;2024-03-07T15:40:16;11.70;96.70
28484;DHT22;15704;48.834;8.736;2024-03-07T15:42:45;11.70;96.70
28484;DHT22;15704;48.834;8.736;2024-03-07T15:45:17;11.70;96.70
28484;DHT22;15704;48.834;8.736;2024-03-07T15:47:57;11.70;96.70
28484;DHT22;15704;48.834;8.736;2024-03-07T15:50:26;11.70;96.70
28484;DHT22;15704;48.834;8.736;2024-03-07T15:52:57;11.70;96.70
28484;DHT22;15704;48.834;8.736;2024-03-07T15:55:26;11.70;96.70
28484;DHT22;15704;48.834;8.736;2024-03-07T15:57:56;11.70;96.70
28484;DHT22;15704;48.834;8.736;2024-03-07T16:00:26;11.70;96.70
28484;DHT22;15704;48.834;8.736;2024-03-07T16:03:02;11.70;96.70
28484;DHT22;15704;48.834;8.736;2024-03-07T16:05:35;11.70;96.70
28484;DHT22;15704;48.834;8.736;2024-03-07T16:08:05;11.70;96.70
28484;DHT22;15704;48.834;8.736;2024-03-07T16:10:40;11.70;96.70
28484;DHT22;15704;48.834;8.736;2024-03-07T16:13:09;11.70;96.70
28484;DHT22;15704;48.834;8.736;2024-03-07T16:15:39;11.70;96.70
28484;DHT22;15704;48.834;8.736;2024-03-07T16:18:08;11.70;96.60
28484;DHT22;15704;48.834;8.736;2024-03-07T16:20:38;11.70;96.60